createdAt,value
2017-10-15T00:02:05.145Z,25.10
2017-10-15T00:04:33.753Z,25.00
2017-10-15T00:07:01.633Z,25.00
2017-10-15T00:09:29.700Z,25.00
2017-10-15T00:11:57.536Z,25.00
2017-10-15T00:14:26.168Z,25.00
2017-10-15T00:16:54.096Z,25.00
2017-10-15T00:19:21.976Z,25.00
2017-10-15T00:21:49.815Z,25.00
2017-10-15T00:24:18.501Z,25.00
2017-10-15T00:26:47.198Z,24.90
2017-10-15T00:29:15.226Z,24.90
2017-10-15T00:31:43.090Z,24.90
2017-10-15T00:34:10.961Z,24.90
2017-10-15T00:36:38.838Z,24.90
2017-10-15T00:39:06.699Z,24.90
2017-10-15T00:41:34.591Z,24.90
2017-10-15T00:44:03.239Z,24.80
2017-10-15T00:46:31.119Z,24.90
2017-10-15T00:48:58.977Z,24.80
2017-10-15T00:51:26.854Z,24.80
2017-10-15T00:53:54.759Z,24.80
2017-10-15T00:56:22.725Z,24.80
2017-10-15T00:58:50.683Z,24.80
2017-10-15T01:01:19.338Z,24.70
2017-10-15T01:03:47.364Z,24.70
2017-10-15T01:06:15.264Z,24.70
2017-10-15T01:08:43.126Z,24.70
2017-10-15T01:11:10.971Z,24.70
2017-10-15T01:13:38.840Z,24.70
2017-10-15T01:16:06.733Z,24.70
2017-10-15T01:18:34.663Z,24.70
2017-10-15T01:21:02.619Z,24.70
2017-10-15T01:23:30.564Z,24.70
2017-10-15T01:25:59.235Z,24.70
2017-10-15T01:28:27.192Z,24.70
2017-10-15T01:30:55.147Z,24.70
2017-10-15T01:33:23.116Z,24.60
2017-10-15T01:35:51.087Z,24.70
2017-10-15T01:38:19.084Z,24.70
2017-10-15T01:40:47.120Z,24.60
2017-10-15T01:43:15.072Z,24.60
2017-10-15T01:45:43.046Z,24.60
2017-10-15T01:48:11.010Z,24.60
2017-10-15T01:50:38.927Z,24.60
2017-10-15T01:53:06.802Z,24.60
2017-10-15T01:55:35.563Z,24.60
2017-10-15T01:58:03.491Z,24.60
2017-10-15T02:00:31.459Z,24.60
2017-10-15T02:02:59.361Z,24.60
2017-10-15T02:05:27.233Z,24.60
2017-10-15T02:07:55.101Z,24.60
2017-10-15T02:10:23.015Z,24.60
2017-10-15T02:12:50.924Z,24.50
2017-10-15T02:15:18.974Z,24.50
2017-10-15T02:17:46.913Z,24.50
2017-10-15T02:20:14.842Z,24.50
2017-10-15T02:22:42.789Z,24.50
2017-10-15T02:25:10.657Z,24.60
2017-10-15T02:27:38.516Z,24.50
2017-10-15T02:30:06.391Z,24.50
2017-10-15T02:32:34.257Z,24.50
2017-10-15T02:35:02.120Z,24.50
2017-10-15T02:37:29.951Z,24.50
2017-10-15T02:39:57.825Z,24.50
2017-10-15T02:42:25.680Z,24.50
2017-10-15T02:44:54.406Z,24.50
2017-10-15T02:47:22.309Z,24.50
2017-10-15T02:49:50.205Z,24.50
2017-10-15T02:52:18.079Z,24.50
2017-10-15T02:54:45.953Z,24.50
2017-10-15T02:57:13.857Z,24.50
2017-10-15T02:59:41.707Z,24.50
2017-10-15T03:02:09.549Z,24.50
2017-10-15T03:04:37.419Z,24.50
2017-10-15T03:07:05.355Z,24.50
2017-10-15T03:09:34.009Z,24.40
2017-10-15T03:12:01.900Z,24.50
2017-10-15T03:14:30.519Z,24.40
2017-10-15T03:16:58.371Z,24.40
2017-10-15T03:19:27.034Z,24.40
2017-10-15T03:21:54.896Z,24.40
2017-10-15T03:24:22.748Z,24.40
2017-10-15T03:26:50.624Z,24.40
2017-10-15T03:29:18.569Z,24.40
2017-10-15T03:31:46.461Z,24.40
2017-10-15T03:34:14.376Z,24.40
2017-10-15T03:36:42.995Z,24.30
2017-10-15T03:39:10.846Z,24.30
2017-10-15T03:41:38.724Z,24.30
2017-10-15T03:44:06.590Z,24.30
2017-10-15T03:46:34.476Z,24.30
2017-10-15T03:49:02.368Z,24.30
2017-10-15T03:51:31.016Z,24.30
2017-10-15T03:53:58.884Z,24.20
2017-10-15T03:56:26.753Z,24.20
2017-10-15T03:58:54.661Z,24.20
2017-10-15T04:01:22.542Z,24.20
2017-10-15T04:03:50.432Z,24.20
2017-10-15T04:06:18.289Z,24.20
2017-10-15T04:08:46.140Z,24.10
2017-10-15T04:11:14.033Z,24.10
2017-10-15T04:13:41.917Z,24.10
2017-10-15T04:16:09.805Z,24.10
2017-10-15T04:18:37.739Z,24.10
2017-10-15T04:21:05.669Z,24.00
2017-10-15T04:23:33.549Z,24.00
2017-10-15T04:26:01.401Z,24.00
2017-10-15T04:28:29.256Z,24.00
2017-10-15T04:30:57.902Z,24.00
2017-10-15T04:33:25.752Z,24.00
2017-10-15T04:35:53.613Z,24.00
2017-10-15T04:38:21.454Z,24.00
2017-10-15T04:40:49.480Z,24.00
2017-10-15T04:43:17.323Z,24.00
2017-10-15T04:45:45.178Z,23.90
2017-10-15T04:48:13.055Z,24.00
2017-10-15T04:50:40.924Z,24.00
2017-10-15T04:53:08.808Z,24.00
2017-10-15T04:55:36.674Z,24.00
2017-10-15T04:58:04.555Z,23.90
2017-10-15T05:00:32.433Z,23.90
2017-10-15T05:03:01.053Z,23.90
2017-10-15T05:05:28.915Z,23.90
2017-10-15T05:07:56.766Z,23.90
2017-10-15T05:10:24.604Z,24.00
2017-10-15T05:12:52.503Z,24.00
2017-10-15T05:15:20.344Z,24.00
2017-10-15T05:17:49.029Z,24.00
2017-10-15T05:20:17.841Z,24.00
2017-10-15T05:22:45.705Z,24.00
2017-10-15T05:25:13.584Z,24.00
2017-10-15T05:27:41.434Z,24.00
2017-10-15T05:30:09.297Z,24.00
2017-10-15T05:32:37.988Z,24.00
2017-10-15T05:35:05.865Z,24.00
2017-10-15T05:37:33.776Z,24.00
2017-10-15T05:40:01.659Z,24.00
2017-10-15T05:42:29.583Z,24.00
2017-10-15T05:44:57.426Z,24.00
2017-10-15T05:47:25.279Z,24.00
2017-10-15T05:49:53.936Z,24.00
2017-10-15T05:52:21.872Z,24.00
2017-10-15T05:54:49.814Z,24.00
2017-10-15T05:57:17.785Z,24.00
2017-10-15T05:59:45.622Z,24.00
2017-10-15T06:02:14.258Z,24.10
2017-10-15T06:04:42.187Z,24.10
2017-10-15T06:07:10.065Z,24.10
2017-10-15T06:09:38.007Z,24.10
2017-10-15T06:12:06.648Z,24.10
2017-10-15T06:14:35.364Z,24.10
2017-10-15T06:17:03.295Z,24.00
2017-10-15T06:19:31.976Z,24.00
2017-10-15T06:21:59.870Z,24.00
2017-10-15T06:24:27.712Z,24.00
2017-10-15T06:26:55.589Z,24.00
2017-10-15T06:29:23.512Z,24.00
2017-10-15T06:31:51.507Z,24.00
2017-10-15T06:34:19.427Z,24.00
2017-10-15T06:36:48.024Z,24.00
2017-10-15T06:42:18.982Z,24.00
2017-10-15T06:44:47.643Z,24.00
2017-10-15T06:47:16.431Z,24.00
2017-10-15T06:49:44.377Z,24.00
2017-10-15T06:52:12.216Z,24.00
2017-10-15T06:54:40.112Z,24.00
2017-10-15T06:57:08.090Z,24.00
2017-10-15T06:59:35.969Z,24.00
2017-10-15T07:02:04.028Z,24.00
2017-10-15T07:04:31.854Z,24.00
2017-10-15T07:06:59.681Z,24.10
2017-10-15T07:09:28.269Z,24.10
2017-10-15T07:11:56.239Z,24.10
2017-10-15T07:14:24.821Z,24.20
2017-10-15T07:16:53.442Z,24.20
2017-10-15T07:19:21.307Z,24.20
2017-10-15T07:21:49.209Z,24.20
2017-10-15T07:24:17.050Z,24.20
2017-10-15T07:26:45.059Z,24.30
2017-10-15T07:29:13.008Z,24.40
2017-10-15T07:31:40.908Z,24.40
2017-10-15T07:34:09.512Z,24.50
2017-10-15T07:36:37.461Z,24.50
2017-10-15T07:39:06.130Z,24.70
2017-10-15T07:41:34.055Z,24.70
2017-10-15T07:44:02.011Z,24.70
2017-10-15T07:46:29.907Z,24.80
2017-10-15T07:48:57.892Z,24.90
2017-10-15T07:51:25.717Z,25.00
2017-10-15T07:53:54.127Z,25.00
2017-10-15T07:56:22.366Z,25.10
2017-10-15T07:58:50.370Z,25.10
2017-10-15T08:01:18.249Z,25.20
2017-10-15T08:03:46.400Z,25.30
2017-10-15T08:06:14.223Z,25.30
2017-10-15T08:08:42.813Z,25.50
2017-10-15T08:11:11.385Z,25.60
2017-10-15T08:13:40.091Z,25.60
2017-10-15T08:16:08.015Z,25.60
2017-10-15T08:18:35.951Z,25.60
2017-10-15T08:21:03.935Z,25.70
2017-10-15T08:23:31.836Z,25.70
2017-10-15T08:26:00.967Z,25.90
2017-10-15T08:28:32.198Z,25.90
2017-10-15T08:31:00.890Z,25.90
2017-10-15T08:33:33.607Z,26.00
2017-10-15T08:36:02.140Z,26.10
2017-10-15T08:38:30.143Z,26.10
2017-10-15T08:40:58.052Z,26.20
2017-10-15T08:43:26.018Z,26.30
2017-10-15T08:45:54.146Z,26.40
2017-10-15T08:48:21.992Z,26.40
2017-10-15T08:50:49.876Z,26.50
2017-10-15T08:53:18.511Z,26.60
2017-10-15T08:55:46.355Z,26.60
2017-10-15T08:58:14.280Z,26.70
2017-10-15T09:00:42.248Z,26.80
2017-10-15T09:03:10.236Z,26.90
2017-10-15T09:05:39.189Z,27.00
2017-10-15T09:08:07.991Z,27.00
2017-10-15T09:10:35.875Z,27.00
2017-10-15T09:13:03.703Z,27.10
2017-10-15T09:15:32.379Z,27.10
2017-10-15T09:18:01.353Z,27.20
2017-10-15T09:20:29.567Z,27.20
2017-10-15T09:22:58.154Z,27.40
2017-10-15T09:25:27.035Z,27.40
2017-10-15T09:27:55.183Z,27.40
2017-10-15T09:30:23.244Z,27.40
2017-10-15T09:32:51.210Z,27.50
2017-10-15T09:35:19.859Z,27.50
2017-10-15T09:37:47.714Z,27.60
2017-10-15T09:40:15.536Z,27.60
2017-10-15T09:42:43.366Z,27.70
2017-10-15T09:45:11.166Z,27.70
2017-10-15T09:47:39.041Z,27.80
2017-10-15T09:50:06.876Z,27.80
2017-10-15T09:52:48.586Z,27.90
2017-10-15T09:55:16.516Z,27.90
2017-10-15T09:57:44.340Z,28.00
2017-10-15T10:00:13.321Z,28.10
2017-10-15T10:02:41.152Z,28.00
2017-10-15T10:05:09.015Z,28.10
2017-10-15T10:07:36.986Z,28.10
2017-10-15T10:10:04.858Z,28.20
2017-10-15T10:12:32.760Z,28.20
2017-10-15T10:15:04.435Z,28.30
2017-10-15T10:17:33.087Z,28.40
2017-10-15T10:20:00.924Z,28.30
2017-10-15T10:22:28.964Z,28.40
2017-10-15T10:24:56.831Z,28.50
2017-10-15T10:27:24.755Z,28.50
2017-10-15T10:29:52.635Z,28.60
2017-10-15T10:32:20.651Z,28.60
2017-10-15T10:34:52.038Z,28.70
2017-10-15T10:37:20.896Z,28.60
2017-10-15T10:39:48.743Z,28.60
2017-10-15T10:42:16.638Z,28.60
2017-10-15T10:44:44.779Z,28.70
2017-10-15T10:47:12.672Z,28.70
2017-10-15T10:49:40.596Z,28.70
2017-10-15T10:52:09.283Z,28.70
2017-10-15T10:54:37.959Z,28.80
2017-10-15T10:57:06.688Z,28.80
2017-10-15T10:59:34.679Z,28.70
2017-10-15T11:02:02.509Z,28.80
2017-10-15T11:04:30.417Z,28.80
2017-10-15T11:06:58.271Z,28.90
2017-10-15T11:09:26.259Z,28.90
2017-10-15T11:11:54.089Z,29.00
2017-10-15T11:14:22.050Z,29.00
2017-10-15T11:16:49.940Z,29.00
2017-10-15T11:19:17.776Z,29.00
2017-10-15T11:21:46.374Z,29.00
2017-10-15T11:24:14.206Z,29.00
2017-10-15T11:26:42.868Z,29.00
2017-10-15T11:29:10.703Z,29.00
2017-10-15T11:31:38.575Z,29.00
2017-10-15T11:34:12.320Z,29.00
2017-10-15T11:36:40.246Z,29.00
2017-10-15T11:39:08.144Z,28.90
2017-10-15T11:41:36.068Z,29.00
2017-10-15T11:44:04.924Z,29.00
2017-10-15T11:46:35.649Z,29.00
2017-10-15T11:49:03.607Z,29.00
2017-10-15T11:51:31.832Z,29.00
2017-10-15T11:53:59.676Z,29.00
2017-10-15T11:56:28.309Z,29.00
2017-10-15T11:58:56.168Z,29.00
2017-10-15T12:01:24.872Z,29.00
2017-10-15T12:03:52.813Z,29.00
2017-10-15T12:06:21.102Z,29.00
2017-10-15T12:08:49.948Z,29.10
2017-10-15T12:11:18.183Z,29.10
2017-10-15T12:13:46.232Z,29.20
2017-10-15T12:16:14.151Z,29.20
2017-10-15T12:18:42.993Z,29.20
2017-10-15T12:21:10.973Z,29.20
2017-10-15T12:23:38.811Z,29.20
2017-10-15T12:26:06.775Z,29.20
2017-10-15T12:28:34.599Z,29.20
2017-10-15T12:31:02.923Z,29.10
2017-10-15T12:33:31.039Z,29.10
2017-10-15T12:35:59.627Z,29.10
2017-10-15T12:38:27.765Z,29.10
2017-10-15T12:40:56.172Z,29.10
2017-10-15T12:43:25.063Z,29.10
2017-10-15T12:45:52.891Z,29.10
2017-10-15T12:48:21.379Z,29.10
2017-10-15T12:50:50.509Z,29.10
2017-10-15T12:53:19.100Z,29.20
2017-10-15T12:55:47.167Z,29.10
2017-10-15T12:58:15.208Z,29.20
2017-10-15T13:00:44.519Z,29.10
2017-10-15T13:03:12.431Z,29.20
2017-10-15T13:05:41.047Z,29.10
2017-10-15T13:08:09.004Z,29.10
2017-10-15T13:10:36.881Z,29.10
2017-10-15T13:13:04.736Z,29.00
2017-10-15T13:15:33.450Z,29.00
2017-10-15T13:18:02.586Z,29.00
2017-10-15T13:20:34.746Z,29.00
2017-10-15T13:23:06.291Z,29.00
2017-10-15T13:25:36.261Z,29.00
2017-10-15T13:28:07.332Z,29.00
2017-10-15T13:30:35.189Z,29.00
2017-10-15T13:33:03.017Z,29.00
2017-10-15T13:35:30.886Z,29.00
2017-10-15T13:37:58.862Z,29.00
2017-10-15T13:40:26.705Z,29.00
2017-10-15T13:42:55.332Z,29.00
2017-10-15T13:45:23.246Z,29.00
2017-10-15T13:47:51.872Z,29.00
2017-10-15T13:50:19.692Z,28.90
2017-10-15T13:52:48.296Z,28.90
2017-10-15T13:55:16.159Z,28.90
2017-10-15T13:57:44.939Z,28.90
2017-10-15T14:00:13.624Z,28.90
2017-10-15T14:02:42.333Z,28.90
2017-10-15T14:05:10.309Z,28.80
2017-10-15T14:07:38.241Z,28.80
2017-10-15T14:10:06.861Z,28.70
2017-10-15T14:12:34.946Z,28.80
2017-10-15T14:15:02.796Z,28.80
2017-10-15T14:17:30.733Z,28.80
2017-10-15T14:19:59.352Z,28.80
2017-10-15T14:22:27.714Z,28.70
2017-10-15T14:24:56.776Z,28.70
2017-10-15T14:27:25.508Z,28.60
2017-10-15T14:29:53.455Z,28.60
2017-10-15T14:32:22.402Z,28.60
2017-10-15T14:34:50.271Z,28.60
2017-10-15T14:37:18.125Z,28.60
2017-10-15T14:39:46.015Z,28.50
2017-10-15T14:42:13.936Z,28.50
2017-10-15T14:44:41.834Z,28.50
2017-10-15T14:47:09.688Z,28.50
2017-10-15T14:49:37.509Z,28.50
2017-10-15T14:52:06.426Z,28.50
2017-10-15T14:54:34.272Z,28.50
2017-10-15T14:57:02.936Z,28.40
2017-10-15T14:59:30.809Z,28.40
2017-10-15T15:01:59.398Z,28.40
2017-10-15T15:04:28.253Z,28.40
2017-10-15T15:06:56.152Z,28.40
2017-10-15T15:09:24.767Z,28.40
2017-10-15T15:11:52.616Z,28.40
2017-10-15T15:14:21.248Z,28.40
2017-10-15T15:16:49.068Z,28.40
2017-10-15T15:19:16.955Z,28.30
2017-10-15T15:21:44.879Z,28.40
2017-10-15T15:24:13.544Z,28.30
2017-10-15T15:26:41.495Z,28.30
2017-10-15T15:29:09.383Z,28.30
2017-10-15T15:31:37.343Z,28.30
2017-10-15T15:34:06.466Z,28.20
2017-10-15T15:36:34.392Z,28.20
2017-10-15T15:39:02.257Z,28.20
2017-10-15T15:41:30.203Z,28.20
2017-10-15T15:43:58.110Z,28.20
2017-10-15T15:46:25.961Z,28.20
2017-10-15T15:48:53.777Z,28.10
2017-10-15T15:51:22.559Z,28.00
2017-10-15T15:53:51.160Z,28.10
2017-10-15T15:56:19.056Z,28.00
2017-10-15T15:58:46.966Z,28.00
2017-10-15T16:01:15.645Z,28.00
2017-10-15T16:03:43.522Z,28.00
2017-10-15T16:06:12.107Z,27.90
2017-10-15T16:08:42.279Z,27.90
2017-10-15T16:11:10.427Z,27.90
2017-10-15T16:13:38.378Z,27.90
2017-10-15T16:16:06.306Z,27.90
2017-10-15T16:18:34.314Z,27.90
2017-10-15T16:21:03.024Z,27.80
2017-10-15T16:23:31.009Z,27.80
2017-10-15T16:25:58.843Z,27.80
2017-10-15T16:28:26.811Z,27.80
2017-10-15T16:30:55.685Z,27.70
2017-10-15T16:33:24.475Z,27.70
2017-10-15T16:35:52.489Z,27.60
2017-10-15T16:38:20.573Z,27.60
2017-10-15T16:40:48.454Z,27.60
2017-10-15T16:43:17.061Z,27.60
2017-10-15T16:45:45.105Z,27.60
2017-10-15T16:48:13.104Z,27.60
2017-10-15T16:50:41.697Z,27.60
2017-10-15T16:53:10.445Z,27.50
2017-10-15T16:55:38.368Z,27.50
2017-10-15T16:58:06.343Z,27.50
2017-10-15T17:00:34.304Z,27.50
2017-10-15T17:03:02.638Z,27.50
2017-10-15T17:05:30.477Z,27.50
2017-10-15T17:07:58.435Z,27.40
2017-10-15T17:10:26.480Z,27.50
2017-10-15T17:12:55.101Z,27.40
2017-10-15T17:15:23.200Z,27.40
2017-10-15T17:17:52.223Z,27.30
2017-10-15T17:20:21.158Z,27.30
2017-10-15T17:22:49.081Z,27.30
2017-10-15T17:25:17.712Z,27.30
2017-10-15T17:27:46.920Z,27.30
2017-10-15T17:30:15.545Z,27.30
2017-10-15T17:32:44.351Z,27.20
2017-10-15T17:35:12.614Z,27.20
2017-10-15T17:37:41.334Z,27.10
2017-10-15T17:40:09.139Z,27.10
2017-10-15T17:42:37.028Z,27.10
2017-10-15T17:45:05.632Z,27.10
2017-10-15T17:47:33.454Z,27.10
2017-10-15T17:50:01.323Z,27.00
2017-10-15T17:52:29.274Z,27.00
2017-10-15T17:54:57.188Z,27.00
2017-10-15T17:57:25.875Z,27.00
2017-10-15T17:59:53.744Z,26.90
2017-10-15T18:02:29.399Z,26.90
2017-10-15T18:04:57.549Z,26.90
2017-10-15T18:07:26.211Z,26.80
2017-10-15T18:09:54.184Z,26.80
2017-10-15T18:12:22.108Z,26.80
2017-10-15T18:14:49.983Z,26.80
2017-10-15T18:17:17.953Z,26.80
2017-10-15T18:19:45.891Z,26.80
2017-10-15T18:22:13.815Z,26.80
2017-10-15T18:24:42.411Z,26.70
2017-10-15T18:27:10.232Z,26.70
2017-10-15T18:29:38.066Z,26.70
2017-10-15T18:32:06.708Z,26.60
2017-10-15T18:34:35.290Z,26.60
2017-10-15T18:37:03.273Z,26.60
2017-10-15T18:39:33.084Z,26.50
2017-10-15T18:42:00.926Z,26.50
2017-10-15T18:44:28.775Z,26.50
2017-10-15T18:46:56.770Z,26.50
2017-10-15T18:49:24.663Z,26.50
2017-10-15T18:51:53.355Z,26.40
2017-10-15T18:54:22.032Z,26.40
2017-10-15T18:56:49.883Z,26.40
2017-10-15T18:59:17.700Z,26.40
2017-10-15T19:01:45.576Z,26.40
2017-10-15T19:04:13.487Z,26.40
2017-10-15T19:06:42.072Z,26.30
2017-10-15T19:09:09.958Z,26.30
2017-10-15T19:11:38.106Z,26.40
2017-10-15T19:14:05.927Z,26.30
2017-10-15T19:16:33.712Z,26.30
2017-10-15T19:19:01.732Z,26.30
2017-10-15T19:21:30.332Z,26.30
2017-10-15T19:23:58.892Z,26.30
2017-10-15T19:26:27.602Z,26.30
2017-10-15T19:28:56.177Z,26.30
2017-10-15T19:31:24.729Z,26.30
2017-10-15T19:33:52.740Z,26.30
2017-10-15T19:36:20.527Z,26.30
2017-10-15T19:38:48.391Z,26.30
2017-10-15T19:41:16.282Z,26.30
2017-10-15T19:43:44.084Z,26.30
2017-10-15T19:46:12.723Z,26.30
2017-10-15T19:48:42.013Z,26.30
2017-10-15T19:51:10.675Z,26.30
2017-10-15T19:53:38.581Z,26.30
2017-10-15T19:56:07.557Z,26.30
2017-10-15T19:58:35.360Z,26.20
2017-10-15T20:01:03.306Z,26.20
2017-10-15T20:03:31.133Z,26.20
2017-10-15T20:05:58.954Z,26.20
2017-10-15T20:08:26.739Z,26.20
2017-10-15T20:10:56.217Z,26.20
2017-10-15T20:13:24.126Z,26.20
2017-10-15T20:15:52.784Z,26.20
2017-10-15T20:18:21.676Z,26.20
2017-10-15T20:20:51.534Z,26.10
2017-10-15T20:23:19.525Z,26.10
2017-10-15T20:25:47.344Z,26.10
2017-10-15T20:28:16.040Z,26.00
2017-10-15T20:30:44.629Z,26.00
2017-10-15T20:33:12.462Z,26.00
2017-10-15T20:35:40.235Z,26.00
2017-10-15T20:38:11.345Z,26.00
2017-10-15T20:40:43.299Z,26.00
2017-10-15T20:43:14.355Z,26.00
2017-10-15T20:45:42.227Z,26.00
2017-10-15T20:48:11.100Z,26.00
2017-10-15T20:50:39.601Z,26.00
2017-10-15T20:53:08.220Z,25.90
2017-10-15T20:55:36.128Z,25.90
2017-10-15T20:58:05.049Z,25.90
2017-10-15T21:00:33.929Z,25.90
2017-10-15T21:03:17.179Z,25.90
2017-10-15T21:05:46.713Z,25.90
2017-10-15T21:08:14.528Z,25.90
2017-10-15T21:10:42.316Z,25.90
2017-10-15T21:13:12.215Z,25.90
2017-10-15T21:15:40.103Z,25.80
2017-10-15T21:18:08.752Z,25.90
2017-10-15T21:20:36.553Z,25.90
2017-10-15T21:23:05.288Z,25.90
2017-10-15T21:25:33.091Z,25.80
2017-10-15T21:28:01.705Z,25.80
2017-10-15T21:30:30.414Z,25.80
2017-10-15T21:32:58.200Z,25.90
2017-10-15T21:35:26.022Z,25.80
2017-10-15T21:37:54.023Z,25.80
2017-10-15T21:40:21.858Z,25.80
2017-10-15T21:42:50.141Z,25.80
2017-10-15T21:45:17.992Z,25.80
2017-10-15T21:47:45.801Z,25.70
2017-10-15T21:50:13.692Z,25.80
2017-10-15T21:52:41.777Z,25.70
2017-10-15T21:55:10.325Z,25.70
2017-10-15T21:57:38.535Z,25.70
2017-10-15T22:00:07.123Z,25.70
2017-10-15T22:02:36.300Z,25.80
2017-10-15T22:05:04.129Z,25.70
2017-10-15T22:07:32.062Z,25.70
2017-10-15T22:10:00.641Z,25.70
2017-10-15T22:12:29.198Z,25.70
2017-10-15T22:14:57.025Z,25.70
2017-10-15T22:17:24.845Z,25.70
2017-10-15T22:19:53.438Z,25.70
2017-10-15T22:22:25.529Z,25.70
2017-10-15T22:24:53.458Z,25.70
2017-10-15T22:27:22.151Z,25.70
2017-10-15T22:29:50.734Z,25.70
2017-10-15T22:32:19.402Z,25.60
2017-10-15T22:34:47.995Z,25.70
2017-10-15T22:37:16.605Z,25.70
2017-10-15T22:39:44.440Z,25.60
2017-10-15T22:42:13.135Z,25.70
2017-10-15T22:44:42.213Z,25.60
2017-10-15T22:47:10.126Z,25.60
2017-10-15T22:49:38.877Z,25.60
2017-10-15T22:52:07.501Z,25.60
2017-10-15T22:54:35.403Z,25.60
2017-10-15T22:57:03.311Z,25.60
2017-10-15T22:59:31.164Z,25.60
2017-10-15T23:01:59.769Z,25.60
2017-10-15T23:04:27.628Z,25.50
2017-10-15T23:06:55.502Z,25.60
2017-10-15T23:09:23.338Z,25.50
2017-10-15T23:11:52.067Z,25.50
2017-10-15T23:14:19.903Z,25.50
2017-10-15T23:16:48.558Z,25.50
2017-10-15T23:19:16.420Z,25.50
2017-10-15T23:21:44.340Z,25.50
2017-10-15T23:24:12.384Z,25.50
2017-10-15T23:26:40.279Z,25.40
2017-10-15T23:29:08.389Z,25.40
2017-10-15T23:31:36.235Z,25.40
2017-10-15T23:34:04.319Z,25.40
2017-10-15T23:36:32.266Z,25.40
2017-10-15T23:39:00.077Z,25.40
2017-10-15T23:41:27.971Z,25.40
2017-10-15T23:43:56.819Z,25.30
2017-10-15T23:46:24.739Z,25.30
2017-10-15T23:48:52.567Z,25.30
2017-10-15T23:51:20.485Z,25.30
2017-10-15T23:53:48.335Z,25.30
2017-10-15T23:56:16.220Z,25.30
2017-10-15T23:58:44.346Z,25.20
